createdAt,value
2017-12-08T00:00:23.376Z,2.40
2017-12-08T00:02:57.668Z,2.20
2017-12-08T00:05:31.926Z,2.43
2017-12-08T00:08:06.273Z,3.03
2017-12-08T00:10:40.443Z,2.80
2017-12-08T00:13:14.761Z,2.87
2017-12-08T00:15:49.020Z,2.37
2017-12-08T00:18:23.310Z,2.13
2017-12-08T00:20:57.407Z,2.57
2017-12-08T00:23:31.736Z,1.93
2017-12-08T00:26:06.150Z,2.10
2017-12-08T00:28:40.725Z,2.43
2017-12-08T00:31:14.858Z,2.40
2017-12-08T00:33:49.175Z,3.00
2017-12-08T00:36:23.432Z,2.53
2017-12-08T00:38:57.704Z,2.30
2017-12-08T00:41:31.952Z,2.53
2017-12-08T00:44:06.224Z,2.00
2017-12-08T00:46:40.489Z,2.40
2017-12-08T00:49:14.669Z,2.30
2017-12-08T00:51:48.801Z,2.70
2017-12-08T00:54:23.213Z,2.17
2017-12-08T00:56:57.520Z,2.40
2017-12-08T00:59:31.692Z,2.43
2017-12-08T01:02:05.970Z,2.37
2017-12-08T01:04:40.184Z,2.00
2017-12-08T01:07:14.448Z,1.83
2017-12-08T01:09:48.797Z,1.93
2017-12-08T01:12:22.949Z,1.70
2017-12-08T01:14:57.248Z,1.60
2017-12-08T01:17:31.503Z,1.93
2017-12-08T01:20:05.896Z,2.23
2017-12-08T01:22:40.018Z,1.37
2017-12-08T01:25:14.279Z,1.30
2017-12-08T01:27:48.528Z,1.80
2017-12-08T01:30:22.787Z,2.77
2017-12-08T01:32:57.040Z,2.17
2017-12-08T01:35:31.458Z,2.40
2017-12-08T01:38:05.728Z,2.20
2017-12-08T01:40:39.892Z,2.50
2017-12-08T01:43:14.256Z,2.10
2017-12-08T01:45:48.426Z,2.50
2017-12-08T01:48:22.683Z,1.80
2017-12-08T01:50:56.888Z,2.20
2017-12-08T01:53:31.140Z,2.50
2017-12-08T01:56:05.439Z,1.70
2017-12-08T01:58:39.704Z,2.83
2017-12-08T02:01:13.933Z,2.30
2017-12-08T02:03:48.211Z,2.00
2017-12-08T02:06:22.496Z,2.43
2017-12-08T02:08:56.731Z,1.97
2017-12-08T02:11:31.024Z,2.20
2017-12-08T02:14:05.272Z,2.60
2017-12-08T02:16:39.539Z,3.40
2017-12-08T02:19:13.805Z,1.90
2017-12-08T02:21:48.138Z,1.47
2017-12-08T02:24:22.399Z,1.33
2017-12-08T02:26:56.965Z,1.83
2017-12-08T02:29:31.264Z,1.83
2017-12-08T02:32:05.460Z,2.30
2017-12-08T02:34:39.683Z,1.83
2017-12-08T02:37:13.801Z,1.67
2017-12-08T02:39:47.943Z,1.83
2017-12-08T02:42:22.212Z,1.27
2017-12-08T02:44:56.459Z,1.60
2017-12-08T02:47:30.745Z,1.70
2017-12-08T02:50:04.856Z,1.50
2017-12-08T02:52:39.040Z,1.40
2017-12-08T02:55:13.361Z,1.97
2017-12-08T02:57:47.705Z,1.67
2017-12-08T03:00:21.885Z,1.90
2017-12-08T03:02:55.948Z,2.33
2017-12-08T03:05:30.199Z,2.50
2017-12-08T03:08:04.467Z,3.00
2017-12-08T03:10:38.706Z,2.10
2017-12-08T03:13:13.017Z,2.00
2017-12-08T03:15:47.152Z,2.50
2017-12-08T03:18:21.315Z,2.63
2017-12-08T03:20:55.431Z,2.20
2017-12-08T03:23:29.603Z,1.87
2017-12-08T03:26:03.875Z,3.07
2017-12-08T03:28:38.247Z,2.20
2017-12-08T03:31:12.507Z,2.00
2017-12-08T03:33:46.791Z,1.77
2017-12-08T03:36:21.024Z,1.67
2017-12-08T03:38:55.308Z,1.70
2017-12-08T03:41:29.590Z,2.17
2017-12-08T03:44:03.884Z,1.90
2017-12-08T03:46:38.165Z,2.60
2017-12-08T03:49:12.454Z,2.70
2017-12-08T03:51:46.704Z,2.13
2017-12-08T03:54:20.981Z,1.70
2017-12-08T03:56:55.202Z,2.93
2017-12-08T03:59:29.590Z,2.90
2017-12-08T04:02:03.830Z,2.30
2017-12-08T04:04:38.091Z,2.20
2017-12-08T04:07:12.261Z,2.30
2017-12-08T04:09:46.531Z,2.57
2017-12-08T04:12:20.690Z,2.30
2017-12-08T04:14:54.904Z,2.40
2017-12-08T04:17:29.204Z,2.17
2017-12-08T04:20:03.476Z,2.27
2017-12-08T04:22:37.712Z,2.07
2017-12-08T04:25:11.904Z,3.33
2017-12-08T04:27:46.147Z,2.77
2017-12-08T04:30:20.446Z,2.47
2017-12-08T04:32:54.726Z,2.33
2017-12-08T04:35:29.010Z,2.23
2017-12-08T04:38:03.209Z,1.90
2017-12-08T04:40:37.477Z,2.07
2017-12-08T04:43:11.826Z,2.90
2017-12-08T04:45:46.108Z,1.90
2017-12-08T04:48:20.386Z,2.40
2017-12-08T04:50:54.700Z,2.40
2017-12-08T04:53:28.872Z,2.50
2017-12-08T04:56:03.140Z,2.93
2017-12-08T04:58:37.281Z,2.90
2017-12-08T05:01:11.548Z,2.93
2017-12-08T05:03:45.877Z,3.30
2017-12-08T05:06:20.073Z,3.20
2017-12-08T05:08:54.261Z,2.77
2017-12-08T05:11:28.572Z,2.43
2017-12-08T05:14:02.741Z,3.70
2017-12-08T05:16:37.056Z,2.73
2017-12-08T05:19:13.482Z,3.20
2017-12-08T05:21:47.801Z,3.30
2017-12-08T05:24:21.992Z,3.70
2017-12-08T05:26:56.293Z,2.63
2017-12-08T05:29:30.560Z,3.43
2017-12-08T05:32:04.862Z,3.30
2017-12-08T05:34:39.164Z,2.63
2017-12-08T05:37:13.499Z,3.60
2017-12-08T05:39:47.842Z,3.53
2017-12-08T05:42:22.084Z,3.63
2017-12-08T05:44:56.350Z,3.17
2017-12-08T05:47:30.894Z,3.67
2017-12-08T05:50:05.113Z,3.03
2017-12-08T05:52:39.357Z,3.87
2017-12-08T05:55:13.616Z,3.27
2017-12-08T05:57:47.947Z,3.47
2017-12-08T06:00:22.578Z,2.97
2017-12-08T06:02:56.805Z,3.30
2017-12-08T06:05:31.120Z,4.47
2017-12-08T06:08:05.460Z,3.20
2017-12-08T06:10:39.634Z,3.70
2017-12-08T06:13:13.989Z,2.50
2017-12-08T06:15:48.363Z,2.10
2017-12-08T06:18:22.569Z,2.03
2017-12-08T06:20:56.711Z,2.27
2017-12-08T06:23:30.903Z,2.27
2017-12-08T06:26:05.272Z,2.50
2017-12-08T06:28:39.525Z,2.90
2017-12-08T06:31:13.721Z,2.60
2017-12-08T06:33:47.974Z,2.33
2017-12-08T06:36:22.553Z,2.10
2017-12-08T06:38:57.223Z,2.00
2017-12-08T06:41:31.462Z,2.27
2017-12-08T06:44:05.824Z,2.60
2017-12-08T06:46:40.108Z,2.73
2017-12-08T06:49:14.661Z,1.83
2017-12-08T06:51:49.123Z,2.13
2017-12-08T06:54:23.401Z,1.30
2017-12-08T06:56:58.590Z,2.27
2017-12-08T06:59:33.777Z,1.63
2017-12-08T07:02:08.446Z,1.40
2017-12-08T07:04:45.635Z,2.27
2017-12-08T07:07:20.706Z,1.80
2017-12-08T07:09:56.588Z,2.50
2017-12-08T07:12:30.815Z,2.43
2017-12-08T07:15:05.455Z,1.37
2017-12-08T07:20:18.316Z,2.07
2017-12-08T07:22:53.380Z,1.20
2017-12-08T07:28:06.762Z,0.93
2017-12-08T07:36:02.275Z,1.00
2017-12-08T07:43:57.566Z,0.73
2017-12-08T07:54:35.127Z,1.83
2017-12-08T07:57:09.655Z,0.87
2017-12-08T07:59:44.822Z,1.00
2017-12-08T08:07:36.134Z,1.00
2017-12-08T08:10:11.879Z,0.90
2017-12-08T08:20:47.391Z,1.10
2017-12-08T08:23:23.130Z,1.30
2017-12-08T08:28:35.906Z,1.13
2017-12-08T08:47:06.713Z,1.10
2017-12-08T08:49:42.823Z,1.43
2017-12-08T08:52:20.766Z,1.53
2017-12-08T08:54:56.822Z,0.90
2017-12-08T08:57:31.390Z,1.00
2017-12-08T09:00:06.426Z,1.40
2017-12-08T09:11:28.330Z,1.00
2017-12-08T09:16:41.815Z,1.13
2017-12-08T09:19:19.479Z,1.50
2017-12-08T09:21:53.969Z,1.13
2017-12-08T09:27:07.014Z,1.90
2017-12-08T09:32:09.676Z,1.70
2017-12-08T09:34:39.048Z,2.00
2017-12-08T09:42:13.704Z,2.20
2017-12-08T09:44:45.986Z,2.53
2017-12-08T09:47:16.476Z,4.40
2017-12-08T09:49:45.312Z,2.93
2017-12-08T09:52:14.518Z,3.83
2017-12-08T09:54:47.742Z,4.23
2017-12-08T09:57:16.662Z,4.20
2017-12-08T10:02:21.228Z,3.83
2017-12-08T10:04:50.654Z,4.60
2017-12-08T10:07:19.148Z,4.10
2017-12-08T10:09:47.977Z,4.23
2017-12-08T10:12:16.837Z,4.33
2017-12-08T10:22:27.118Z,4.90
2017-12-08T10:27:29.211Z,5.37
2017-12-08T10:55:46.200Z,5.60
2017-12-08T11:07:16.719Z,4.50
2017-12-08T12:08:55.177Z,6.27
2017-12-08T12:11:23.837Z,7.60
2017-12-08T12:13:57.740Z,6.80
2017-12-08T12:19:00.623Z,5.80
2017-12-08T12:21:36.908Z,6.80
2017-12-08T12:24:06.027Z,7.50
2017-12-08T12:29:16.157Z,7.40
2017-12-08T12:35:18.129Z,6.67
2017-12-08T12:37:47.415Z,7.00
2017-12-08T12:40:18.702Z,7.00
2017-12-08T12:45:29.082Z,7.60
2017-12-08T12:47:57.825Z,6.13
2017-12-08T12:55:45.922Z,6.13
2017-12-08T13:05:53.862Z,6.37
2017-12-08T13:10:56.314Z,7.50
2017-12-08T13:13:37.686Z,9.13
2017-12-08T13:16:06.430Z,7.37
2017-12-08T13:18:35.846Z,7.23
2017-12-08T13:27:11.011Z,6.67
2017-12-08T13:29:39.472Z,6.07
2017-12-08T13:37:15.012Z,5.90
2017-12-08T13:44:48.563Z,6.47
2017-12-08T13:52:40.135Z,6.57
2017-12-08T13:55:20.527Z,6.67
2017-12-08T14:02:56.784Z,7.47
2017-12-08T14:05:36.851Z,6.63
2017-12-08T14:10:52.737Z,6.80
2017-12-08T14:15:56.096Z,5.53
2017-12-08T14:18:26.142Z,4.97
2017-12-08T14:23:36.127Z,5.00
2017-12-08T14:47:48.754Z,4.50
2017-12-08T14:56:07.872Z,4.47
2017-12-08T15:14:42.885Z,4.20
2017-12-08T15:25:14.755Z,3.30
2017-12-08T15:27:43.513Z,3.43
2017-12-08T15:39:14.719Z,2.33
2017-12-08T15:44:55.870Z,2.57
2017-12-08T15:49:57.417Z,1.70
2017-12-08T16:02:53.103Z,2.23
2017-12-08T16:07:54.680Z,2.20
2017-12-08T16:10:24.940Z,3.20
2017-12-08T16:15:26.417Z,2.40
2017-12-08T16:17:55.132Z,1.90
2017-12-08T16:25:29.848Z,2.50
2017-12-08T16:27:58.614Z,1.83
2017-12-08T16:30:27.105Z,1.77
2017-12-08T16:38:04.057Z,2.63
2017-12-08T16:43:21.259Z,3.17
2017-12-08T16:45:49.793Z,2.07
2017-12-08T16:48:18.626Z,2.70
2017-12-08T16:50:48.696Z,1.90
2017-12-08T16:55:50.614Z,2.17
2017-12-08T16:58:20.452Z,2.10
2017-12-08T17:00:50.107Z,2.43
2017-12-08T17:03:21.584Z,2.53
2017-12-08T17:08:26.305Z,2.67
2017-12-08T17:15:59.893Z,1.40
2017-12-08T17:21:01.305Z,2.93
2017-12-08T17:23:30.731Z,2.00
2017-12-08T17:25:59.336Z,2.47
2017-12-08T17:28:28.660Z,2.20
2017-12-08T17:30:57.478Z,2.40
2017-12-08T17:33:26.871Z,3.27
2017-12-08T17:35:57.060Z,2.40
2017-12-08T17:40:58.887Z,2.83
2017-12-08T17:56:13.282Z,3.03
2017-12-08T18:01:32.124Z,2.53
2017-12-08T18:06:33.611Z,2.77
2017-12-08T18:11:34.489Z,3.40
2017-12-08T18:14:02.856Z,2.90
2017-12-08T18:16:31.235Z,3.53
2017-12-08T18:18:59.654Z,2.97
2017-12-08T18:21:28.089Z,2.43
2017-12-08T18:23:59.988Z,2.10
2017-12-08T18:26:30.300Z,2.33
2017-12-08T18:31:31.553Z,2.43
2017-12-08T18:34:00.138Z,2.30
2017-12-08T18:36:29.339Z,2.77
2017-12-08T18:38:57.877Z,3.50
2017-12-08T18:41:26.438Z,2.70
2017-12-08T18:46:28.564Z,2.97
2017-12-08T18:48:57.593Z,1.93
2017-12-08T18:51:26.078Z,2.20
2017-12-08T18:53:54.722Z,2.33
2017-12-08T18:56:23.197Z,2.53
2017-12-08T18:58:51.534Z,2.00
2017-12-08T19:01:19.881Z,3.03
2017-12-08T19:03:48.259Z,2.07
2017-12-08T19:06:16.620Z,2.80
2017-12-08T19:11:17.940Z,2.30
2017-12-08T19:16:18.906Z,2.47
2017-12-08T19:18:47.344Z,2.13
2017-12-08T19:21:16.405Z,2.83
2017-12-08T19:23:44.785Z,3.20
2017-12-08T19:26:13.350Z,2.63
2017-12-08T19:28:41.827Z,3.10
2017-12-08T19:31:10.192Z,3.13
2017-12-08T19:33:38.526Z,3.17
2017-12-08T19:36:06.947Z,2.73
2017-12-08T19:38:35.420Z,3.37
2017-12-08T19:46:11.570Z,2.87
2017-12-08T19:48:40.137Z,3.43
2017-12-08T19:51:08.574Z,2.27
2017-12-08T19:53:37.210Z,2.87
2017-12-08T19:56:09.058Z,3.10
2017-12-08T19:58:37.398Z,3.40
2017-12-08T20:01:05.768Z,3.33
2017-12-08T20:03:34.069Z,3.73
2017-12-08T20:06:02.504Z,3.83
2017-12-08T20:08:31.178Z,2.97
2017-12-08T20:10:59.839Z,3.47
2017-12-08T20:13:28.187Z,3.27
2017-12-08T20:23:35.597Z,3.57
2017-12-08T20:26:03.971Z,3.10
2017-12-08T20:28:33.980Z,3.10
2017-12-08T20:31:02.317Z,2.40
2017-12-08T20:33:30.640Z,3.37
2017-12-08T20:35:59.206Z,3.20
2017-12-08T20:38:27.544Z,2.20
2017-12-08T20:40:55.926Z,2.43
2017-12-08T20:43:25.959Z,2.47
2017-12-08T20:45:54.484Z,3.40
2017-12-08T20:48:22.792Z,3.77
2017-12-08T20:55:59.131Z,2.23
2017-12-08T20:58:27.592Z,1.50
2017-12-08T21:00:55.944Z,2.43
2017-12-08T21:03:24.628Z,2.80
2017-12-08T21:05:53.121Z,2.17
2017-12-08T21:08:21.609Z,1.87
2017-12-08T21:10:50.277Z,2.33
2017-12-08T21:13:18.939Z,3.00
2017-12-08T21:15:47.373Z,2.67
2017-12-08T21:18:15.781Z,2.67
2017-12-08T21:20:44.148Z,2.80
2017-12-08T21:23:12.548Z,2.00
2017-12-08T21:25:40.955Z,2.60
2017-12-08T21:30:41.862Z,2.67
2017-12-08T21:33:10.310Z,2.33
2017-12-08T21:38:11.547Z,2.30
2017-12-08T21:40:40.473Z,2.30
2017-12-08T21:43:08.973Z,2.27
2017-12-08T21:45:37.750Z,2.17
2017-12-08T21:48:07.162Z,2.80
2017-12-08T21:50:35.574Z,2.07
2017-12-08T21:55:36.319Z,2.00
2017-12-08T21:58:05.400Z,1.87
2017-12-08T22:00:34.197Z,2.60
2017-12-08T22:03:02.515Z,2.20
2017-12-08T22:05:31.526Z,2.17
2017-12-08T22:08:03.351Z,2.20
2017-12-08T22:10:31.671Z,2.27
2017-12-08T22:13:00.079Z,2.83
2017-12-08T22:15:28.437Z,1.80
2017-12-08T22:17:57.104Z,2.80
2017-12-08T22:20:26.188Z,2.43
2017-12-08T22:22:54.918Z,1.57
2017-12-08T22:25:24.045Z,2.00
2017-12-08T22:27:52.401Z,2.80
2017-12-08T22:30:20.840Z,1.77
2017-12-08T22:32:50.282Z,3.07
2017-12-08T22:35:20.930Z,2.50
2017-12-08T22:37:49.392Z,1.73
2017-12-08T22:40:17.755Z,1.70
2017-12-08T22:42:46.181Z,2.30
2017-12-08T22:45:18.085Z,2.50
2017-12-08T22:47:46.406Z,1.93
2017-12-08T22:50:15.270Z,1.83
2017-12-08T22:52:43.937Z,2.93
2017-12-08T22:55:12.337Z,4.10
2017-12-08T22:57:40.707Z,2.73
2017-12-08T23:00:09.423Z,2.90
2017-12-08T23:02:37.803Z,2.87
2017-12-08T23:05:06.283Z,2.67
2017-12-08T23:07:34.634Z,2.53
2017-12-08T23:10:02.979Z,2.90
2017-12-08T23:12:31.372Z,3.13
2017-12-08T23:14:59.742Z,3.10
2017-12-08T23:17:28.053Z,2.87
2017-12-08T23:19:56.426Z,2.57
2017-12-08T23:22:24.738Z,2.87
2017-12-08T23:24:53.096Z,3.67
2017-12-08T23:27:21.493Z,3.40
2017-12-08T23:29:49.861Z,3.47
2017-12-08T23:32:18.181Z,2.40
2017-12-08T23:34:46.864Z,3.50
2017-12-08T23:37:15.268Z,3.50
2017-12-08T23:39:43.681Z,3.13
2017-12-08T23:42:12.032Z,2.67
2017-12-08T23:44:40.380Z,3.67
2017-12-08T23:47:08.731Z,3.13
2017-12-08T23:49:37.051Z,3.53
2017-12-08T23:52:05.389Z,2.80
2017-12-08T23:54:33.831Z,3.90
2017-12-08T23:57:02.233Z,3.27
2017-12-08T23:59:30.578Z,2.30
